Time;durP1;ratioP1;P1;durP2;ratioP2;P2;SDS_P1;SDS_P2;PMS_P1;PMS_P2;Temp;Humidity;BMP_temperature;BMP_pressure;BME280_temperature;BME280_humidity;BME280_pressure;Samples;Min_cycle;Max_cycle;Signal;HPM_P1;HPM_P2
2022/09/07 00:01:16;;;;;;;4.47;2.85;;;;;;;;;;4993682;28;100273;-71
2022/09/07 00:03:42;;;;;;;8.77;3.90;;;;;;;;;;4992486;28;100098;-70
2022/09/07 00:06:10;;;;;;;6.47;3.55;;;;;;;;;;4990794;28;99280;-71
2022/09/07 00:08:36;;;;;;;9.45;4.75;;;;;;;;;;5011229;28;98562;-70
2022/09/07 00:11:10;;;;;;;8.13;4.07;;;;;;;;;;5012386;28;99068;-70
2022/09/07 00:13:38;;;;;;;10.68;4.15;;;;;;;;;;5011081;28;100173;-70
2022/09/07 00:16:05;;;;;;;6.55;4.65;;;;;;;;;;5000494;28;98649;-70
2022/09/07 00:18:32;;;;;;;7.68;4.22;;;;;;;;;;4992139;28;99767;-70
2022/09/07 00:20:59;;;;;;;7.63;4.82;;;;;;;;;;4991606;28;100252;-70
2022/09/07 00:23:27;;;;;;;8.43;4.38;;;;;;;;;;4994557;28;99120;-70
2022/09/07 00:25:53;;;;;;;8.88;4.85;;;;;;;;;;4990317;28;101057;-70
2022/09/07 00:28:19;;;;;;;10.05;5.57;;;;;;;;;;4992320;28;98725;-70
2022/09/07 00:30:46;;;;;;;8.63;5.75;;;;;;;;;;4991647;28;99322;-70
2022/09/07 00:33:12;;;;;;;9.32;6.72;;;;;;;;;;4990710;28;100293;-70
2022/09/07 00:35:39;;;;;;;12.20;5.80;;;;;;;;;;4991343;28;98457;-70
2022/09/07 00:38:05;;;;;;;8.32;6.13;;;;;;;;;;4992352;28;99316;-70
2022/09/07 00:40:32;;;;;;;10.65;5.20;;;;;;;;;;4991224;28;99549;-70
2022/09/07 00:42:58;;;;;;;11.43;4.50;;;;;;;;;;4991816;28;97816;-70
2022/09/07 00:45:24;;;;;;;9.68;4.63;;;;;;;;;;4988895;28;98762;-70
2022/09/07 00:47:58;;;;;;;8.68;4.03;;;;;;;;;;4970718;28;98976;-71
2022/09/07 00:50:26;;;;;;;3.95;3.38;;;;;;;;;;4971621;28;100008;-70
2022/09/07 00:52:55;;;;;;;5.90;3.47;;;;;;;;;;4971401;28;99664;-70
2022/09/07 00:55:21;;;;;;;8.75;4.03;;;;;;;;;;4971213;28;98643;-70
2022/09/07 00:57:49;;;;;;;7.00;3.20;;;;;;;;;;4977885;28;99355;-70
2022/09/07 01:00:15;;;;;;;7.40;3.78;;;;;;;;;;4991391;28;99679;-70
2022/09/07 01:02:42;;;;;;;5.90;3.63;;;;;;;;;;4990458;28;98582;-70
2022/09/07 01:05:13;;;;;;;6.65;3.50;;;;;;;;;;4991631;28;99884;-70
2022/09/07 01:07:39;;;;;;;7.88;4.35;;;;;;;;;;4994013;28;98687;-70
2022/09/07 01:10:07;;;;;;;7.22;3.80;;;;;;;;;;4991744;28;99819;-70
2022/09/07 01:12:33;;;;;;;5.70;3.50;;;;;;;;;;4991147;28;99199;-70
2022/09/07 01:15:00;;;;;;;8.00;3.55;;;;;;;;;;4987896;28;99311;-70
2022/09/07 01:17:32;;;;;;;7.28;3.85;;;;;;;;;;4982618;28;100659;-70
2022/09/07 01:20:17;;;;;;;8.07;3.13;;;;;;;;;;4990505;28;99310;-71
2022/09/07 01:23:02;;;;;;;11.48;4.25;;;;;;;;;;4990305;28;98579;-70
2022/09/07 01:25:28;;;;;;;11.80;4.97;;;;;;;;;;4991234;28;99781;-71
2022/09/07 01:27:54;;;;;;;7.65;4.80;;;;;;;;;;4993820;28;100144;-71
2022/09/07 01:30:22;;;;;;;10.13;5.00;;;;;;;;;;4990516;28;99141;-70
2022/09/07 01:33:07;;;;;;;10.50;4.65;;;;;;;;;;4991528;28;99595;-70
2022/09/07 01:35:40;;;;;;;9.02;4.65;;;;;;;;;;4991103;28;98509;-70
2022/09/07 01:38:15;;;;;;;6.70;3.72;;;;;;;;;;4991320;28;99971;-70
2022/09/07 01:40:41;;;;;;;12.02;5.13;;;;;;;;;;4989965;28;101024;-71
2022/09/07 01:43:30;;;;;;;11.40;5.10;;;;;;;;;;4991138;28;98618;-72
2022/09/07 01:45:57;;;;;;;9.57;5.78;;;;;;;;;;4978598;28;100149;-71
2022/09/07 01:48:24;;;;;;;8.30;4.85;;;;;;;;;;4989148;28;99483;-71
2022/09/07 01:51:01;;;;;;;7.22;4.65;;;;;;;;;;4973103;28;98573;-70
2022/09/07 01:53:27;;;;;;;8.00;3.42;;;;;;;;;;4970161;28;99701;-71
2022/09/07 01:56:09;;;;;;;4.47;3.65;;;;;;;;;;4986968;28;98612;-70
2022/09/07 01:58:42;;;;;;;4.83;3.80;;;;;;;;;;4990940;28;99923;-71
2022/09/07 02:01:09;;;;;;;8.95;4.75;;;;;;;;;;4989998;28;99343;-71
2022/09/07 02:03:40;;;;;;;5.22;3.40;;;;;;;;;;4970653;28;99133;-71
2022/09/07 02:06:18;;;;;;;6.43;3.92;;;;;;;;;;4980164;28;99940;-71
2022/09/07 02:08:50;;;;;;;7.72;4.28;;;;;;;;;;4989832;28;100520;-71
2022/09/07 02:11:21;;;;;;;6.03;3.90;;;;;;;;;;4990190;28;98532;-71
2022/09/07 02:13:59;;;;;;;11.00;5.03;;;;;;;;;;4992633;28;101314;-71
2022/09/07 02:16:27;;;;;;;11.35;5.18;;;;;;;;;;4977788;28;98529;-71
2022/09/07 02:18:59;;;;;;;10.60;4.63;;;;;;;;;;4969708;28;100204;-71
2022/09/07 02:21:30;;;;;;;9.15;4.50;;;;;;;;;;4970682;28;100290;-71
2022/09/07 02:24:03;;;;;;;7.47;5.22;;;;;;;;;;4989095;28;97831;-71
2022/09/07 02:26:30;;;;;;;11.63;5.50;;;;;;;;;;4993335;28;98554;-71
2022/09/07 02:28:57;;;;;;;7.10;5.40;;;;;;;;;;4992925;28;99578;-71
2022/09/07 02:31:23;;;;;;;10.40;5.60;;;;;;;;;;4993586;28;99283;-71
2022/09/07 02:33:50;;;;;;;7.80;4.53;;;;;;;;;;4992638;28;99910;-71
2022/09/07 02:36:20;;;;;;;8.02;5.03;;;;;;;;;;4996895;28;99754;-71
2022/09/07 02:38:46;;;;;;;10.80;5.10;;;;;;;;;;4993272;28;98945;-71
2022/09/07 02:41:27;;;;;;;8.10;4.50;;;;;;;;;;4993087;28;99662;-71
2022/09/07 02:43:54;;;;;;;7.95;4.15;;;;;;;;;;4993207;28;98484;-71
2022/09/07 02:46:36;;;;;;;5.15;4.43;;;;;;;;;;4992202;28;98547;-71
2022/09/07 02:49:03;;;;;;;;;;;;;;;;;;4993885;28;98769;-71
2022/09/07 02:51:53;;;;;;;7.55;3.85;;;;;;;;;;4993903;28;119008;-71
2022/09/07 02:54:22;;;;;;;10.95;4.00;;;;;;;;;;4992692;28;99468;-71
2022/09/07 02:56:59;;;;;;;7.18;4.50;;;;;;;;;;4992705;28;100189;-71
2022/09/07 02:59:25;;;;;;;7.63;4.22;;;;;;;;;;4996213;28;98594;-71
2022/09/07 03:01:57;;;;;;;9.55;4.55;;;;;;;;;;4991847;28;100477;-71
2022/09/07 03:04:41;;;;;;;11.52;4.32;;;;;;;;;;4993687;28;98350;-71
2022/09/07 03:07:11;;;;;;;8.50;4.30;;;;;;;;;;4992725;28;100066;-71
2022/09/07 03:09:39;;;;;;;6.53;4.50;;;;;;;;;;4992627;28;100244;-71
2022/09/07 03:12:06;;;;;;;11.00;4.65;;;;;;;;;;4993398;28;98524;-71
2022/09/07 03:14:33;;;;;;;6.88;4.40;;;;;;;;;;4992764;28;99307;-71
2022/09/07 03:17:00;;;;;;;7.05;5.20;;;;;;;;;;4973070;28;100234;-71
2022/09/07 03:19:26;;;;;;;9.20;4.55;;;;;;;;;;4973495;28;98690;-71
2022/09/07 03:21:53;;;;;;;8.45;5.93;;;;;;;;;;4974843;28;99328;-71
2022/09/07 03:24:19;;;;;;;18.92;5.60;;;;;;;;;;4973276;28;98478;-71
2022/09/07 03:26:47;;;;;;;10.75;5.28;;;;;;;;;;4973124;28;100165;-71
2022/09/07 03:29:14;;;;;;;7.78;5.22;;;;;;;;;;4972725;28;99359;-71
2022/09/07 03:31:40;;;;;;;7.10;5.00;;;;;;;;;;4986321;28;98560;-71
2022/09/07 03:34:07;;;;;;;9.20;4.95;;;;;;;;;;4991992;28;99973;-71
2022/09/07 03:36:33;;;;;;;8.27;5.82;;;;;;;;;;4991148;28;99254;-71
2022/09/07 03:38:59;;;;;;;8.90;6.13;;;;;;;;;;4993233;28;97722;-71
2022/09/07 03:41:26;;;;;;;8.43;6.40;;;;;;;;;;4995855;28;99222;-71
2022/09/07 03:43:52;;;;;;;6.63;5.97;;;;;;;;;;4991980;28;98523;-71
2022/09/07 03:46:19;;;;;;;16.70;7.63;;;;;;;;;;4992460;28;100133;-71
2022/09/07 03:48:46;;;;;;;17.45;8.68;;;;;;;;;;4992294;28;99218;-71
2022/09/07 03:51:13;;;;;;;22.95;9.07;;;;;;;;;;4991758;28;98507;-71
2022/09/07 03:53:41;;;;;;;15.25;7.53;;;;;;;;;;4992348;28;99966;-71
2022/09/07 03:56:09;;;;;;;14.43;5.95;;;;;;;;;;4991711;28;99409;-71
2022/09/07 03:58:35;;;;;;;4.40;4.03;;;;;;;;;;4991491;28;99037;-71
2022/09/07 04:01:06;;;;;;;6.70;4.50;;;;;;;;;;4978362;28;99530;-71
2022/09/07 04:03:32;;;;;;;8.32;4.80;;;;;;;;;;4988722;28;99423;-71
2022/09/07 04:05:59;;;;;;;8.85;4.45;;;;;;;;;;4992198;28;99282;-71
2022/09/07 04:08:26;;;;;;;5.70;4.15;;;;;;;;;;4992067;28;100176;-71
2022/09/07 04:10:54;;;;;;;7.68;4.78;;;;;;;;;;4990826;28;99758;-71
2022/09/07 04:13:20;;;;;;;9.23;5.65;;;;;;;;;;4991755;28;99866;-71
2022/09/07 04:15:47;;;;;;;8.93;6.45;;;;;;;;;;4991677;28;99626;-71
2022/09/07 04:18:19;;;;;;;10.30;5.90;;;;;;;;;;4991404;28;98593;-71
2022/09/07 04:20:46;;;;;;;8.02;6.65;;;;;;;;;;4992051;28;99969;-71
2022/09/07 04:23:12;;;;;;;8.57;6.45;;;;;;;;;;4992652;28;100203;-71
2022/09/07 04:25:45;;;;;;;13.55;6.70;;;;;;;;;;4994559;28;98802;-71
2022/09/07 04:28:12;;;;;;;16.63;7.70;;;;;;;;;;4992305;28;99583;-71
2022/09/07 04:30:38;;;;;;;10.15;6.32;;;;;;;;;;4975485;28;98687;-71
2022/09/07 04:33:04;;;;;;;13.82;7.65;;;;;;;;;;4989373;28;98948;-71
2022/09/07 04:35:34;;;;;;;13.43;6.85;;;;;;;;;;4990781;28;101022;-71
2022/09/07 04:38:00;;;;;;;11.38;7.10;;;;;;;;;;4989541;28;98934;-72
2022/09/07 04:40:27;;;;;;;18.38;7.15;;;;;;;;;;4989715;28;100057;-71
2022/09/07 04:42:53;;;;;;;11.77;7.18;;;;;;;;;;4990448;28;99721;-71
2022/09/07 04:45:19;;;;;;;7.72;6.10;;;;;;;;;;4991307;28;99780;-71
2022/09/07 04:47:46;;;;;;;9.02;6.28;;;;;;;;;;4993665;28;99962;-71
2022/09/07 04:50:13;;;;;;;9.88;6.10;;;;;;;;;;4991561;28;99024;-71
2022/09/07 04:52:40;;;;;;;18.85;8.13;;;;;;;;;;4974532;28;99898;-69
2022/09/07 04:55:06;;;;;;;9.48;6.38;;;;;;;;;;4971216;28;99596;-70
2022/09/07 04:57:33;;;;;;;9.20;7.10;;;;;;;;;;4992069;28;98523;-69
2022/09/07 04:59:59;;;;;;;10.80;6.90;;;;;;;;;;4979853;28;99276;-69
2022/09/07 05:02:25;;;;;;;10.88;7.80;;;;;;;;;;4971271;28;100315;-69
2022/09/07 05:04:52;;;;;;;13.75;8.27;;;;;;;;;;4971054;28;98402;-69
2022/09/07 05:07:18;;;;;;;14.02;8.02;;;;;;;;;;4990573;28;98996;-70
2022/09/07 05:09:45;;;;;;;13.75;7.25;;;;;;;;;;4993922;28;100194;-70
2022/09/07 05:12:12;;;;;;;13.10;7.18;;;;;;;;;;4991719;28;98940;-70
2022/09/07 05:14:38;;;;;;;12.07;7.50;;;;;;;;;;4989743;28;99653;-70
2022/09/07 05:17:04;;;;;;;8.25;6.93;;;;;;;;;;4991361;28;97775;-70
2022/09/07 05:19:31;;;;;;;10.73;7.47;;;;;;;;;;4991190;28;99103;-70
2022/09/07 05:21:57;;;;;;;11.30;7.80;;;;;;;;;;4988991;28;99225;-70
2022/09/07 05:24:25;;;;;;;9.05;7.60;;;;;;;;;;4989891;28;99186;-70
2022/09/07 05:26:52;;;;;;;9.35;7.45;;;;;;;;;;4991476;28;99871;-70
2022/09/07 05:29:18;;;;;;;8.27;7.25;;;;;;;;;;4990434;28;99545;-70
2022/09/07 05:32:04;;;;;;;8.68;6.68;;;;;;;;;;4993744;28;98506;-70
2022/09/07 05:34:31;;;;;;;8.80;7.03;;;;;;;;;;4990768;28;100214;-69
2022/09/07 05:36:58;;;;;;;11.57;8.02;;;;;;;;;;4989768;28;99037;-69
2022/09/07 05:39:25;;;;;;;12.82;8.68;;;;;;;;;;4990959;28;100386;-69
2022/09/07 05:41:52;;;;;;;9.30;7.30;;;;;;;;;;4975290;28;99392;-69
2022/09/07 05:44:18;;;;;;;7.47;6.78;;;;;;;;;;4973714;28;98504;-69
2022/09/07 05:47:05;;;;;;;7.72;6.55;;;;;;;;;;4970545;28;100530;-69
2022/09/07 05:49:31;;;;;;;17.90;7.05;;;;;;;;;;4968421;28;100952;-68
2022/09/07 05:51:57;;;;;;;15.80;8.80;;;;;;;;;;4993461;28;98530;-68
2022/09/07 05:54:24;;;;;;;13.02;7.70;;;;;;;;;;4970536;28;98493;-68
2022/09/07 05:56:50;;;;;;;12.80;7.30;;;;;;;;;;4969627;28;98529;-68
2022/09/07 05:59:16;;;;;;;13.27;6.65;;;;;;;;;;4970103;28;99937;-68
2022/09/07 06:01:43;;;;;;;9.27;8.30;;;;;;;;;;4970922;28;100230;-69
2022/09/07 06:04:09;;;;;;;17.10;8.48;;;;;;;;;;4969517;28;99411;-69
2022/09/07 06:06:37;;;;;;;12.15;7.93;;;;;;;;;;4973213;28;99216;-69
2022/09/07 06:09:04;;;;;;;14.32;7.65;;;;;;;;;;4970469;28;100077;-69
2022/09/07 06:11:30;;;;;;;12.50;9.35;;;;;;;;;;4969861;28;98595;-69
2022/09/07 06:13:56;;;;;;;11.23;9.05;;;;;;;;;;4973179;28;99979;-69
2022/09/07 06:16:23;;;;;;;11.98;9.48;;;;;;;;;;4970850;28;99011;-69
2022/09/07 06:18:49;;;;;;;15.38;10.35;;;;;;;;;;4968657;28;100423;-69
2022/09/07 06:21:17;;;;;;;10.85;9.57;;;;;;;;;;4969530;28;100131;-69
2022/09/07 06:23:44;;;;;;;15.55;9.68;;;;;;;;;;4970432;28;98526;-70
2022/09/07 06:26:11;;;;;;;14.95;10.85;;;;;;;;;;4982444;28;99318;-70
2022/09/07 06:28:38;;;;;;;14.25;10.80;;;;;;;;;;4989272;28;99284;-69
2022/09/07 06:31:12;;;;;;;16.50;10.73;;;;;;;;;;4989244;28;98386;-69
2022/09/07 06:33:39;;;;;;;14.50;9.88;;;;;;;;;;4989317;28;98697;-69
2022/09/07 06:36:08;;;;;;;9.98;9.05;;;;;;;;;;4993545;28;99430;-69
2022/09/07 06:38:36;;;;;;;12.73;9.65;;;;;;;;;;4970651;28;99905;-69
2022/09/07 06:41:03;;;;;;;15.30;9.80;;;;;;;;;;4970197;28;99457;-69
2022/09/07 06:43:50;;;;;;;11.10;9.52;;;;;;;;;;4969931;28;98499;-69
2022/09/07 06:46:16;;;;;;;11.02;9.73;;;;;;;;;;4970456;28;100194;-69
2022/09/07 06:49:02;;;;;;;11.85;9.45;;;;;;;;;;4967901;28;99411;-69
2022/09/07 06:51:30;;;;;;;14.57;10.20;;;;;;;;;;4977975;28;100195;-69
2022/09/07 06:53:57;;;;;;;10.25;9.13;;;;;;;;;;4969444;28;99217;-69
2022/09/07 06:56:43;;;;;;;13.32;10.60;;;;;;;;;;4983636;28;99428;-69
2022/09/07 06:59:10;;;;;;;10.38;9.32;;;;;;;;;;4979366;28;98563;-69
2022/09/07 07:01:36;;;;;;;12.13;10.43;;;;;;;;;;4973754;28;100326;-69
2022/09/07 07:04:02;;;;;;;14.23;9.48;;;;;;;;;;4974732;28;99235;-69
2022/09/07 07:06:35;;;;;;;11.60;10.52;;;;;;;;;;4970950;28;101019;-69
2022/09/07 07:09:03;;;;;;;11.57;10.38;;;;;;;;;;4981120;28;100259;-69
2022/09/07 07:11:30;;;;;;;12.30;11.10;;;;;;;;;;4971340;28;98731;-69
2022/09/07 07:13:56;;;;;;;7.05;6.15;;;;;;;;;;4982298;28;99835;-71
2022/09/07 07:16:23;;;;;;;10.30;9.38;;;;;;;;;;4965480;28;100147;-71
2022/09/07 07:18:53;;;;;;;10.32;9.52;;;;;;;;;;4979757;28;100212;-70
2022/09/07 07:21:19;;;;;;;10.60;9.75;;;;;;;;;;4984277;28;99335;-70
2022/09/07 07:23:49;;;;;;;11.75;10.50;;;;;;;;;;4992452;28;98789;-70
2022/09/07 07:26:16;;;;;;;11.45;10.40;;;;;;;;;;4976126;28;99987;-70
2022/09/07 07:28:44;;;;;;;12.00;10.30;;;;;;;;;;4975906;28;100196;-70
2022/09/07 07:31:29;;;;;;;14.70;10.73;;;;;;;;;;4972390;28;98675;-70
2022/09/07 07:34:04;;;;;;;12.23;10.38;;;;;;;;;;4971855;28;99215;-69
2022/09/07 07:36:48;;;;;;;14.38;10.95;;;;;;;;;;4987727;28;100161;-69
2022/09/07 07:39:15;;;;;;;12.15;10.88;;;;;;;;;;4987202;28;98688;-70
2022/09/07 07:42:01;;;;;;;15.23;11.80;;;;;;;;;;4992134;28;99053;-70
2022/09/07 07:44:30;;;;;;;15.02;10.93;;;;;;;;;;4991722;28;98506;-71
2022/09/07 07:46:57;;;;;;;11.38;10.35;;;;;;;;;;4992196;28;100192;-71
2022/09/07 07:49:23;;;;;;;15.13;11.52;;;;;;;;;;4991163;28;100242;-71
2022/09/07 07:51:52;;;;;;;11.70;10.50;;;;;;;;;;4991755;28;98520;-70
2022/09/07 07:54:38;;;;;;;14.10;10.88;;;;;;;;;;4991386;28;100552;-71
2022/09/07 07:57:04;;;;;;;11.95;10.93;;;;;;;;;;4990513;28;99947;-70
2022/09/07 07:59:31;;;;;;;12.30;11.10;;;;;;;;;;4991794;28;98547;-72
2022/09/07 08:02:03;;;;;;;16.63;12.20;;;;;;;;;;4991619;28;100052;-70
2022/09/07 08:04:31;;;;;;;12.82;10.57;;;;;;;;;;4993938;28;100394;-70
2022/09/07 08:06:57;;;;;;;14.48;11.45;;;;;;;;;;4983755;28;100057;-70
2022/09/07 08:09:23;;;;;;;12.48;11.27;;;;;;;;;;4990889;28;100250;-70
2022/09/07 08:11:50;;;;;;;12.90;11.68;;;;;;;;;;4991254;28;97835;-70
2022/09/07 08:14:16;;;;;;;11.85;10.82;;;;;;;;;;4990975;28;99661;-70
2022/09/07 08:16:44;;;;;;;14.43;13.18;;;;;;;;;;4990334;28;100340;-70
2022/09/07 08:19:10;;;;;;;13.93;12.30;;;;;;;;;;4991221;28;99289;-70
2022/09/07 08:21:37;;;;;;;14.65;12.63;;;;;;;;;;4990698;28;100772;-70
2022/09/07 08:24:03;;;;;;;14.25;12.65;;;;;;;;;;4990549;28;100240;-71
2022/09/07 08:26:30;;;;;;;14.00;12.80;;;;;;;;;;4994838;28;98664;-71
2022/09/07 08:28:57;;;;;;;13.38;12.10;;;;;;;;;;4990870;28;99444;-71
2022/09/07 08:31:23;;;;;;;14.90;13.00;;;;;;;;;;4990763;28;98921;-72
2022/09/07 08:33:49;;;;;;;15.00;13.32;;;;;;;;;;4991153;28;100271;-71
2022/09/07 08:36:19;;;;;;;13.23;12.07;;;;;;;;;;4989669;28;100054;-71
2022/09/07 08:38:46;;;;;;;13.95;12.65;;;;;;;;;;4990141;28;98500;-71
2022/09/07 08:41:15;;;;;;;14.93;11.85;;;;;;;;;;4991535;28;99926;-70
2022/09/07 08:43:41;;;;;;;14.80;12.05;;;;;;;;;;4990384;28;101024;-71
2022/09/07 08:46:32;;;;;;;14.38;13.00;;;;;;;;;;4990651;28;98512;-71
2022/09/07 08:49:00;;;;;;;11.18;10.13;;;;;;;;;;4993771;28;100307;-71
2022/09/07 08:51:37;;;;;;;17.17;11.75;;;;;;;;;;4991025;28;98820;-71
2022/09/07 08:54:04;;;;;;;13.75;12.45;;;;;;;;;;4990566;28;100166;-70
2022/09/07 08:56:34;;;;;;;15.35;12.32;;;;;;;;;;4990804;28;100821;-71
2022/09/07 08:59:03;;;;;;;13.88;12.63;;;;;;;;;;4989863;28;99041;-71
2022/09/07 09:01:30;;;;;;;14.93;13.35;;;;;;;;;;4991778;28;98032;-70
2022/09/07 09:03:58;;;;;;;12.40;11.30;;;;;;;;;;4991798;28;99556;-71
2022/09/07 09:06:53;;;;;;;13.25;11.57;;;;;;;;;;4981951;28;99291;-71
2022/09/07 09:09:38;;;;;;;13.20;11.93;;;;;;;;;;4970754;28;99977;-71
2022/09/07 09:12:15;;;;;;;16.23;13.02;;;;;;;;;;4990655;28;99659;-70
2022/09/07 09:15:08;;;;;;;12.93;11.15;;;;;;;;;;4989637;28;100211;-71
2022/09/07 09:17:38;;;;;;;12.75;10.73;;;;;;;;;;4990308;28;100147;-71
2022/09/07 09:20:25;;;;;;;11.43;10.27;;;;;;;;;;4989839;28;98472;-71
2022/09/07 09:22:55;;;;;;;13.88;11.32;;;;;;;;;;4990406;28;99995;-71
2022/09/07 09:25:25;;;;;;;12.55;11.40;;;;;;;;;;4990362;28;100050;-71
2022/09/07 09:27:51;;;;;;;11.88;10.68;;;;;;;;;;4990007;28;97845;-71
2022/09/07 09:30:19;;;;;;;12.52;11.23;;;;;;;;;;4990577;28;98933;-70
2022/09/07 09:32:47;;;;;;;17.50;11.20;;;;;;;;;;4988609;28;100319;-71
2022/09/07 09:35:16;;;;;;;7.45;6.72;;;;;;;;;;4992727;28;99318;-70
2022/09/07 09:37:42;;;;;;;12.15;10.35;;;;;;;;;;4988000;28;99317;-69
2022/09/07 09:40:22;;;;;;;11.65;10.10;;;;;;;;;;4990549;28;98621;-69
2022/09/07 09:42:57;;;;;;;9.80;8.90;;;;;;;;;;4989301;28;99188;-69
2022/09/07 09:45:25;;;;;;;11.35;10.43;;;;;;;;;;4988790;28;100205;-69
2022/09/07 09:47:52;;;;;;;10.98;9.93;;;;;;;;;;4970149;28;98560;-69
2022/09/07 09:50:22;;;;;;;13.77;9.88;;;;;;;;;;4970746;28;99884;-69
2022/09/07 09:53:20;;;;;;;10.52;9.57;;;;;;;;;;4971025;28;99512;-69
2022/09/07 09:55:49;;;;;;;9.98;9.05;;;;;;;;;;4972709;28;98995;-69
2022/09/07 09:58:27;;;;;;;12.85;9.20;;;;;;;;;;4970590;28;100093;-69
2022/09/07 10:01:23;;;;;;;9.95;8.90;;;;;;;;;;4980962;28;99282;-69
2022/09/07 10:03:52;;;;;;;6.85;6.20;;;;;;;;;;4969855;28;98498;-69
2022/09/07 10:06:23;;;;;;;10.30;8.23;;;;;;;;;;4982703;28;99185;-69
2022/09/07 10:08:55;;;;;;;8.70;7.78;;;;;;;;;;4990531;28;98543;-69
2022/09/07 10:11:38;;;;;;;9.80;8.93;;;;;;;;;;4990020;28;100000;-68
2022/09/07 10:14:43;;;;;;;9.57;7.60;;;;;;;;;;4989637;28;100714;-69
2022/09/07 10:17:26;;;;;;;9.05;7.93;;;;;;;;;;4986483;28;99044;-69
2022/09/07 10:19:53;;;;;;;;;;;;;;;;;;4973967;28;98911;-69
2022/09/07 10:22:22;;;;;;;8.00;7.40;;;;;;;;;;4971207;28;118196;-69
2022/09/07 10:24:49;;;;;;;8.10;7.25;;;;;;;;;;4969708;28;99872;-69
2022/09/07 10:27:34;;;;;;;7.28;6.57;;;;;;;;;;4969852;28;100894;-69
2022/09/07 10:30:02;;;;;;;7.82;6.47;;;;;;;;;;4971515;28;99432;-69
2022/09/07 10:32:38;;;;;;;11.23;6.50;;;;;;;;;;4970529;28;99547;-69
2022/09/07 10:35:10;;;;;;;7.82;5.43;;;;;;;;;;4970344;28;100290;-69
2022/09/07 10:38:00;;;;;;;8.82;5.20;;;;;;;;;;4970095;28;98543;-69
2022/09/07 10:40:41;;;;;;;4.60;4.20;;;;;;;;;;4962711;28;100072;-69
2022/09/07 10:43:17;;;;;;;6.07;4.33;;;;;;;;;;4973743;28;100200;-68
2022/09/07 10:46:05;;;;;;;4.53;4.00;;;;;;;;;;4976431;28;100204;-68
2022/09/07 10:48:50;;;;;;;5.63;3.33;;;;;;;;;;4993581;28;99401;-68
2022/09/07 10:51:25;;;;;;;3.78;3.33;;;;;;;;;;4993084;28;99071;-68
2022/09/07 10:54:07;;;;;;;3.53;2.90;;;;;;;;;;4993426;28;100207;-68
2022/09/07 10:56:59;;;;;;;4.70;2.30;;;;;;;;;;4992774;28;100493;-68
2022/09/07 10:59:34;;;;;;;4.47;3.22;;;;;;;;;;4993213;28;98388;-68
2022/09/07 11:02:20;;;;;;;5.30;2.67;;;;;;;;;;4992816;28;100154;-68
2022/09/07 11:04:56;;;;;;;3.35;2.30;;;;;;;;;;4993028;28;99586;-68
2022/09/07 11:07:28;;;;;;;2.22;2.03;;;;;;;;;;4977650;28;99176;-68
2022/09/07 11:09:54;;;;;;;;;;;;;;;;;;4973719;28;100315;-68
2022/09/07 11:12:22;;;;;;;4.68;1.85;;;;;;;;;;4992532;28;118874;-68
2022/09/07 11:15:02;;;;;;;4.97;2.40;;;;;;;;;;4991042;28;100383;-68
2022/09/07 11:17:28;;;;;;;4.72;2.30;;;;;;;;;;4993213;28;99115;-68
2022/09/07 11:20:11;;;;;;;2.75;1.98;;;;;;;;;;4991426;28;99462;-68
2022/09/07 11:22:44;;;;;;;10.23;2.67;;;;;;;;;;4993005;28;99933;-69
2022/09/07 11:25:16;;;;;;;4.28;2.38;;;;;;;;;;4993566;28;99498;-69
2022/09/07 11:28:01;;;;;;;4.65;2.70;;;;;;;;;;4992238;28;98619;-69
2022/09/07 11:30:33;;;;;;;7.65;3.30;;;;;;;;;;4996528;28;98933;-68
2022/09/07 11:33:14;;;;;;;12.68;2.85;;;;;;;;;;4992686;28;98525;-68
2022/09/07 11:35:46;;;;;;;8.00;3.17;;;;;;;;;;4985204;28;99214;-69
2022/09/07 11:38:13;;;;;;;;;;;;;;;;;;4974094;28;99557;-68
2022/09/07 11:41:05;;;;;;;5.22;2.63;;;;;;;;;;4973973;28;98552;-69
2022/09/07 11:43:31;;;;;;;;;;;;;;;;;;4956318;28;99282;-69
2022/09/07 11:46:11;;;;;;;5.30;2.28;;;;;;;;;;4976688;28;130448;-68
2022/09/07 11:48:43;;;;;;;10.52;2.55;;;;;;;;;;4991888;28;98506;-69
2022/09/07 11:51:17;;;;;;;5.45;2.47;;;;;;;;;;4992865;28;99195;-68
2022/09/07 11:53:45;;;;;;;7.68;2.47;;;;;;;;;;4995562;28;99762;-69
2022/09/07 11:56:15;;;;;;;8.75;3.58;;;;;;;;;;4991057;28;99960;-68
2022/09/07 11:59:00;;;;;;;9.93;3.00;;;;;;;;;;4991847;28;100259;-68
2022/09/07 12:01:53;;;;;;;5.82;2.85;;;;;;;;;;4992817;28;98525;-68
2022/09/07 12:04:23;;;;;;;9.15;3.45;;;;;;;;;;4989975;28;99100;-69
2022/09/07 12:07:00;;;;;;;8.73;3.30;;;;;;;;;;4989816;28;99351;-68
2022/09/07 12:09:45;;;;;;;4.82;2.83;;;;;;;;;;4991725;28;98890;-68
2022/09/07 12:12:11;;;;;;;8.68;2.20;;;;;;;;;;4991817;28;99225;-69
2022/09/07 12:14:38;;;;;;;11.85;2.90;;;;;;;;;;4994949;28;99512;-68
2022/09/07 12:17:12;;;;;;;7.65;2.70;;;;;;;;;;4992315;28;99143;-68
2022/09/07 12:19:39;;;;;;;5.32;2.00;;;;;;;;;;4993785;28;100272;-68
2022/09/07 12:22:17;;;;;;;10.20;2.83;;;;;;;;;;4992532;28;98507;-68
2022/09/07 12:24:50;;;;;;;7.65;2.53;;;;;;;;;;4991361;28;99103;-68
2022/09/07 12:27:19;;;;;;;8.93;2.22;;;;;;;;;;4991883;28;100466;-68
2022/09/07 12:29:51;;;;;;;8.80;2.53;;;;;;;;;;4975926;28;98312;-68
2022/09/07 12:32:36;;;;;;;5.68;2.10;;;;;;;;;;4991066;28;98831;-68
2022/09/07 12:35:20;;;;;;;;;;;;;;;;;;4983304;28;100457;-68
2022/09/07 12:37:46;;;;;;;9.52;2.40;;;;;;;;;;4974250;28;118057;-68
2022/09/07 12:40:28;;;;;;;4.88;2.10;;;;;;;;;;4978614;28;99454;-68
2022/09/07 12:43:15;;;;;;;7.30;2.53;;;;;;;;;;4991904;28;98693;-68
2022/09/07 12:45:42;;;;;;;9.95;2.83;;;;;;;;;;4991083;28;99943;-68
2022/09/07 12:48:14;;;;;;;5.53;2.53;;;;;;;;;;4991538;28;100342;-69
2022/09/07 12:50:59;;;;;;;5.68;2.40;;;;;;;;;;4992202;28;98512;-69
2022/09/07 12:53:38;;;;;;;7.65;2.38;;;;;;;;;;4991932;28;99933;-69
2022/09/07 12:56:07;;;;;;;5.50;2.25;;;;;;;;;;4991479;28;98845;-69
2022/09/07 12:58:59;;;;;;;4.53;2.45;;;;;;;;;;4989719;28;98535;-69
2022/09/07 13:01:32;;;;;;;4.18;2.25;;;;;;;;;;4995271;28;99142;-69
2022/09/07 13:04:22;;;;;;;6.50;2.53;;;;;;;;;;4991156;28;99270;-69
2022/09/07 13:07:00;;;;;;;4.60;2.15;;;;;;;;;;4990319;28;101160;-68
2022/09/07 13:09:34;;;;;;;8.80;2.45;;;;;;;;;;4991536;28;99344;-68
2022/09/07 13:12:03;;;;;;;7.03;3.13;;;;;;;;;;4989715;28;98457;-68
2022/09/07 13:14:32;;;;;;;6.47;2.35;;;;;;;;;;4991355;28;99205;-68
2022/09/07 13:17:18;;;;;;;11.35;2.75;;;;;;;;;;4990833;28;99328;-69
2022/09/07 13:19:44;;;;;;;3.97;2.47;;;;;;;;;;4990476;28;98952;-69
2022/09/07 13:22:46;;;;;;;4.38;2.67;;;;;;;;;;4992053;28;100016;-69
2022/09/07 13:25:23;;;;;;;4.95;2.00;;;;;;;;;;4994577;28;99657;-69
2022/09/07 13:27:52;;;;;;;9.60;2.75;;;;;;;;;;4990365;28;99953;-69
2022/09/07 13:30:48;;;;;;;5.47;2.35;;;;;;;;;;4974529;28;101246;-68
2022/09/07 13:33:24;;;;;;;8.57;2.33;;;;;;;;;;4969025;28;98548;-69
2022/09/07 13:35:51;;;;;;;4.40;2.28;;;;;;;;;;4972849;28;98928;-69
2022/09/07 13:38:18;;;;;;;5.78;1.90;;;;;;;;;;4970852;28;99237;-70
2022/09/07 13:40:45;;;;;;;5.03;1.85;;;;;;;;;;4970229;28;98509;-68
2022/09/07 13:43:17;;;;;;;5.32;2.05;;;;;;;;;;4971354;28;100108;-69
2022/09/07 13:45:45;;;;;;;;;;;;;;;;;;4971058;28;101208;-68
2022/09/07 13:48:35;;;;;;;6.70;1.70;;;;;;;;;;4974534;28;118483;-69
2022/09/07 13:51:04;;;;;;;7.70;2.65;;;;;;;;;;4970208;28;100284;-69
2022/09/07 13:53:33;;;;;;;5.65;2.00;;;;;;;;;;4971007;28;98551;-68
2022/09/07 13:56:00;;;;;;;4.88;2.10;;;;;;;;;;4969655;28;99816;-69
2022/09/07 13:58:26;;;;;;;7.05;2.10;;;;;;;;;;4971318;28;100313;-69
2022/09/07 14:00:54;;;;;;;9.50;2.50;;;;;;;;;;4971205;28;98657;-69
2022/09/07 14:03:22;;;;;;;6.13;1.73;;;;;;;;;;4971000;28;99155;-69
2022/09/07 14:05:48;;;;;;;5.20;1.70;;;;;;;;;;4970007;28;101911;-68
2022/09/07 14:08:22;;;;;;;6.07;1.70;;;;;;;;;;4991851;28;99488;-68
2022/09/07 14:10:48;;;;;;;6.55;2.00;;;;;;;;;;4973841;28;99175;-69
2022/09/07 14:13:14;;;;;;;7.40;2.00;;;;;;;;;;4971189;28;98148;-68
2022/09/07 14:15:43;;;;;;;4.15;1.20;;;;;;;;;;4996029;28;99256;-68
2022/09/07 14:18:11;;;;;;;8.18;2.05;;;;;;;;;;4986913;28;101912;-69
2022/09/07 14:20:40;;;;;;;5.55;1.77;;;;;;;;;;4976578;28;99464;-69
2022/09/07 14:23:40;;;;;;;4.53;1.83;;;;;;;;;;4980436;28;100097;-69
2022/09/07 14:26:14;;;;;;;3.42;1.63;;;;;;;;;;4954425;28;100598;-69
2022/09/07 14:28:44;;;;;;;5.18;1.50;;;;;;;;;;4991743;28;98648;-68
2022/09/07 14:31:11;;;;;;;7.15;1.70;;;;;;;;;;4990675;28;99744;-69
2022/09/07 14:33:39;;;;;;;24.52;1.90;;;;;;;;;;4975734;28;98615;-68
2022/09/07 14:36:11;;;;;;;6.72;1.63;;;;;;;;;;4989440;28;100059;-68
2022/09/07 14:38:58;;;;;;;6.25;1.77;;;;;;;;;;4980438;28;99308;-68
2022/09/07 14:41:33;;;;;;;6.47;1.60;;;;;;;;;;4986115;28;100484;-68
2022/09/07 14:44:00;;;;;;;2.63;1.58;;;;;;;;;;4981254;28;99149;-68
2022/09/07 14:46:27;;;;;;;6.55;1.80;;;;;;;;;;4986323;28;100011;-68
2022/09/07 14:48:55;;;;;;;3.10;1.60;;;;;;;;;;4986211;28;98613;-68
2022/09/07 14:51:25;;;;;;;5.78;1.55;;;;;;;;;;5003411;28;99029;-68
2022/09/07 14:54:03;;;;;;;3.13;1.38;;;;;;;;;;4992944;28;100829;-68
2022/09/07 14:56:32;;;;;;;3.83;1.52;;;;;;;;;;4990279;28;100084;-68
2022/09/07 14:58:59;;;;;;;5.20;1.70;;;;;;;;;;4986135;28;100066;-68